createdAt,value
2023-10-26T00:01:21.434Z,38.83
2023-10-26T00:03:50.950Z,42.72
2023-10-26T00:06:19.117Z,37.42
2023-10-26T00:08:47.192Z,35.28
2023-10-26T00:11:15.272Z,40.03
2023-10-26T00:13:43.274Z,38.20
2023-10-26T00:16:11.268Z,38.25
2023-10-26T00:18:39.433Z,36.25
2023-10-26T00:21:09.357Z,32.45
2023-10-26T00:23:37.430Z,42.80
2023-10-26T00:26:05.810Z,34.47
2023-10-26T00:28:33.771Z,38.70
2023-10-26T00:31:01.767Z,42.55
2023-10-26T00:33:29.812Z,41.47
2023-10-26T00:35:58.259Z,35.05
2023-10-26T00:38:27.702Z,35.45
2023-10-26T00:40:55.683Z,35.50
2023-10-26T00:43:25.354Z,29.17
2023-10-26T00:45:54.354Z,34.30
2023-10-26T00:48:26.100Z,40.95
2023-10-26T00:50:54.684Z,41.08
2023-10-26T00:53:23.237Z,40.22
2023-10-26T00:55:54.170Z,33.67
2023-10-26T00:58:26.930Z,35.00
2023-10-26T01:00:55.375Z,44.63
2023-10-26T01:03:25.883Z,34.75
2023-10-26T01:05:53.990Z,31.58
2023-10-26T01:08:22.062Z,42.67
2023-10-26T01:10:50.093Z,37.05
2023-10-26T01:13:20.129Z,39.42
2023-10-26T01:15:48.180Z,32.38
2023-10-26T01:18:16.274Z,40.88
2023-10-26T01:20:44.837Z,35.75
2023-10-26T01:23:14.198Z,35.67
2023-10-26T01:25:42.713Z,30.83
2023-10-26T01:28:11.527Z,36.28
2023-10-26T01:30:43.079Z,38.65
2023-10-26T01:33:11.255Z,36.30
2023-10-26T01:35:42.519Z,35.55
2023-10-26T01:38:10.859Z,31.83
2023-10-26T01:40:40.435Z,34.45
2023-10-26T01:43:08.521Z,34.08
2023-10-26T01:45:36.610Z,32.17
2023-10-26T01:48:05.105Z,36.80
2023-10-26T01:50:34.138Z,35.03
2023-10-26T01:53:02.174Z,36.65
2023-10-26T01:55:30.127Z,27.88
2023-10-26T01:58:00.361Z,26.20
2023-10-26T02:00:28.498Z,29.38
2023-10-26T02:02:57.311Z,35.00
2023-10-26T02:05:26.348Z,35.28
2023-10-26T02:07:54.641Z,36.83
2023-10-26T02:10:25.090Z,32.85
2023-10-26T02:12:53.081Z,34.05
2023-10-26T02:15:22.549Z,33.88
2023-10-26T02:17:50.697Z,35.85
2023-10-26T02:20:18.914Z,37.17
2023-10-26T02:22:48.029Z,36.80
2023-10-26T02:25:16.727Z,35.33
2023-10-26T02:27:44.810Z,32.22
2023-10-26T02:30:13.850Z,38.80
2023-10-26T02:32:43.314Z,34.78
2023-10-26T02:35:11.348Z,35.17
2023-10-26T02:37:40.589Z,36.90
2023-10-26T02:40:11.111Z,39.50
2023-10-26T02:42:40.283Z,31.45
2023-10-26T02:45:10.309Z,33.47
2023-10-26T02:47:39.910Z,36.97
2023-10-26T02:50:10.784Z,37.53
2023-10-26T02:52:39.449Z,40.83
2023-10-26T02:55:08.716Z,34.37
2023-10-26T02:57:36.888Z,30.50
2023-10-26T03:00:06.262Z,49.38
2023-10-26T03:02:34.371Z,36.43
2023-10-26T03:05:03.922Z,43.35
2023-10-26T03:07:33.442Z,39.78
2023-10-26T03:10:01.636Z,45.72
2023-10-26T03:12:29.910Z,39.20
2023-10-26T03:14:57.980Z,43.38
2023-10-26T03:17:26.043Z,42.20
2023-10-26T03:19:54.611Z,41.55
2023-10-26T03:22:23.667Z,41.78
2023-10-26T03:24:53.491Z,46.15
2023-10-26T03:27:21.618Z,44.63
2023-10-26T03:29:49.635Z,41.47
2023-10-26T03:32:17.755Z,45.38
2023-10-26T03:34:46.236Z,40.40
2023-10-26T03:37:14.301Z,43.83
2023-10-26T03:39:42.351Z,40.75
2023-10-26T03:42:11.816Z,37.83
2023-10-26T03:44:39.804Z,45.75
2023-10-26T03:47:08.808Z,37.67
2023-10-26T03:49:36.909Z,34.60
2023-10-26T03:52:05.460Z,38.45
2023-10-26T03:54:33.542Z,41.63
2023-10-26T03:57:01.715Z,38.55
2023-10-26T03:59:31.274Z,37.85
2023-10-26T04:01:59.843Z,38.05
2023-10-26T04:04:27.914Z,35.63
2023-10-26T04:06:55.931Z,38.17
2023-10-26T04:09:24.016Z,37.97
2023-10-26T04:11:52.079Z,37.27
2023-10-26T04:14:20.396Z,42.10
2023-10-26T04:16:51.029Z,45.43
2023-10-26T04:19:19.005Z,48.83
2023-10-26T04:21:47.374Z,46.38
2023-10-26T04:24:15.525Z,40.92
2023-10-26T04:26:44.342Z,47.27
2023-10-26T04:29:12.927Z,41.60
2023-10-26T04:31:41.029Z,50.30
2023-10-26T04:34:10.554Z,44.17
2023-10-26T04:36:38.632Z,38.73
2023-10-26T04:39:09.441Z,37.45
2023-10-26T04:41:37.496Z,39.70
2023-10-26T04:44:06.519Z,44.40
2023-10-26T04:46:34.646Z,44.47
2023-10-26T04:49:02.966Z,38.63
2023-10-26T04:51:33.667Z,39.67
2023-10-26T04:54:01.783Z,40.43
2023-10-26T04:56:29.975Z,33.97
2023-10-26T04:58:57.954Z,49.58
2023-10-26T05:01:25.973Z,56.35
2023-10-26T05:03:54.623Z,52.95
2023-10-26T05:06:22.785Z,46.92
2023-10-26T05:08:52.261Z,48.75
2023-10-26T05:11:21.474Z,46.60
2023-10-26T05:13:53.606Z,39.50
2023-10-26T05:16:22.015Z,43.93
2023-10-26T05:18:50.216Z,51.90
2023-10-26T05:21:18.356Z,50.75
2023-10-26T05:23:48.749Z,36.60
2023-10-26T05:26:18.110Z,41.92
2023-10-26T05:28:46.911Z,43.83
2023-10-26T05:31:15.429Z,45.90
2023-10-26T05:33:43.611Z,54.78
2023-10-26T05:36:12.041Z,50.47
2023-10-26T05:38:40.400Z,53.80
2023-10-26T05:41:08.442Z,42.90
2023-10-26T05:43:37.860Z,45.45
2023-10-26T05:46:07.693Z,43.85
2023-10-26T05:48:36.188Z,42.80
2023-10-26T05:51:04.444Z,46.22
2023-10-26T05:53:32.604Z,44.53
2023-10-26T05:56:01.494Z,41.38
2023-10-26T05:58:29.639Z,44.42
2023-10-26T06:00:59.222Z,49.42
2023-10-26T06:03:27.244Z,43.35
2023-10-26T06:06:00.886Z,45.53
2023-10-26T06:08:29.127Z,45.70
2023-10-26T06:10:59.339Z,42.47
2023-10-26T06:13:27.696Z,37.55
2023-10-26T06:15:55.957Z,43.92
2023-10-26T06:18:25.759Z,39.45
2023-10-26T06:21:00.421Z,37.22
2023-10-26T06:23:29.436Z,36.75
2023-10-26T06:26:01.297Z,38.55
2023-10-26T06:28:30.698Z,46.47
2023-10-26T06:31:09.947Z,50.83
2023-10-26T06:33:40.036Z,42.78
2023-10-26T06:36:09.510Z,41.50
2023-10-26T06:38:38.126Z,48.08
2023-10-26T06:41:07.019Z,42.20
2023-10-26T06:43:35.585Z,41.50
2023-10-26T06:46:03.751Z,46.22
2023-10-26T06:48:32.110Z,36.50
2023-10-26T06:51:03.266Z,37.55
2023-10-26T06:53:31.488Z,41.00
2023-10-26T06:55:59.758Z,43.63
2023-10-26T06:58:28.908Z,30.55
2023-10-26T07:00:57.057Z,40.03
2023-10-26T07:03:25.840Z,36.03
2023-10-26T07:05:54.196Z,42.20
2023-10-26T07:08:23.943Z,37.95
2023-10-26T07:10:52.171Z,30.17
2023-10-26T07:13:20.339Z,41.92
2023-10-26T07:15:48.686Z,37.50
2023-10-26T07:18:19.644Z,33.10
2023-10-26T07:20:50.511Z,44.42
2023-10-26T07:23:19.636Z,42.70
2023-10-26T07:25:53.190Z,40.80
2023-10-26T07:28:21.717Z,37.00
2023-10-26T07:30:52.719Z,43.03
2023-10-26T07:33:26.277Z,42.35
2023-10-26T07:35:56.797Z,41.42
2023-10-26T07:38:35.160Z,40.50
2023-10-26T07:41:07.575Z,37.05
2023-10-26T07:43:36.095Z,39.47
2023-10-26T07:46:04.800Z,34.30
2023-10-26T07:48:34.294Z,34.03
2023-10-26T07:51:02.993Z,35.65
2023-10-26T07:53:31.031Z,40.15
2023-10-26T07:55:59.297Z,37.78
2023-10-26T07:58:29.221Z,44.65
2023-10-26T08:00:57.324Z,39.30
2023-10-26T08:03:26.546Z,42.00
2023-10-26T08:05:58.357Z,42.20
2023-10-26T08:08:26.434Z,47.40
2023-10-26T08:10:54.531Z,32.92
2023-10-26T08:13:22.785Z,36.30
2023-10-26T08:16:28.904Z,40.42
2023-10-26T08:18:40.460Z,28.50
2023-10-26T08:21:09.507Z,34.83
2023-10-26T08:23:37.706Z,39.08
2023-10-26T08:26:09.605Z,39.17
2023-10-26T08:28:38.467Z,30.52
2023-10-26T08:31:09.072Z,35.15
2023-10-26T08:33:39.120Z,35.50
2023-10-26T08:36:07.812Z,39.90
2023-10-26T08:38:35.988Z,31.38
2023-10-26T08:41:04.120Z,40.70
2023-10-26T08:43:34.915Z,39.65
2023-10-26T08:46:04.672Z,43.78
2023-10-26T08:48:40.052Z,34.78
2023-10-26T08:51:08.589Z,37.28
2023-10-26T08:53:37.134Z,40.42
2023-10-26T08:56:05.976Z,35.63
2023-10-26T08:58:34.213Z,42.00
2023-10-26T09:01:02.685Z,33.40
2023-10-26T09:03:30.667Z,39.55
2023-10-26T09:06:00.124Z,33.40
2023-10-26T09:08:29.989Z,32.35
2023-10-26T09:10:58.081Z,31.70
2023-10-26T09:13:27.409Z,33.78
2023-10-26T09:15:58.594Z,35.10
2023-10-26T09:18:28.567Z,38.75
2023-10-26T09:21:07.227Z,34.20
2023-10-26T09:23:38.229Z,37.13
2023-10-26T09:26:09.152Z,32.33
2023-10-26T09:28:53.735Z,34.88
2023-10-26T09:31:22.254Z,32.25
2023-10-26T09:33:50.714Z,28.13
2023-10-26T09:36:22.481Z,36.88
2023-10-26T09:38:50.782Z,28.15
2023-10-26T09:41:20.937Z,37.17
2023-10-26T09:43:49.646Z,37.92
2023-10-26T09:46:19.055Z,30.63
2023-10-26T09:48:48.359Z,35.05
2023-10-26T09:51:17.668Z,32.17
2023-10-26T09:53:49.634Z,39.13
2023-10-26T09:56:23.187Z,34.47
2023-10-26T09:58:53.148Z,34.95
2023-10-26T10:01:35.306Z,37.83
2023-10-26T10:04:04.177Z,34.00
2023-10-26T10:06:52.603Z,26.88
2023-10-26T10:09:25.145Z,31.52
2023-10-26T10:12:30.631Z,32.80
2023-10-26T10:15:22.253Z,37.85
2023-10-26T10:18:06.873Z,38.17
2023-10-26T10:20:36.566Z,35.97
2023-10-26T10:23:05.885Z,26.60
2023-10-26T10:26:05.756Z,32.90
2023-10-26T10:28:55.779Z,33.20
2023-10-26T10:31:24.754Z,36.90
2023-10-26T10:34:04.650Z,40.00
2023-10-26T10:37:11.961Z,41.00
2023-10-26T10:39:40.780Z,38.50
2023-10-26T10:42:13.767Z,33.97
2023-10-26T10:44:43.727Z,32.22
2023-10-26T10:47:11.787Z,31.48
2023-10-26T10:49:39.856Z,29.77
2023-10-26T10:52:14.931Z,36.17
2023-10-26T10:55:02.901Z,36.95
2023-10-26T10:57:34.579Z,37.15
2023-10-26T11:00:02.629Z,32.25
2023-10-26T11:02:30.691Z,34.60
2023-10-26T11:05:12.859Z,44.67
2023-10-26T11:07:46.241Z,38.55
2023-10-26T11:10:14.301Z,40.63
2023-10-26T11:12:51.415Z,40.95
2023-10-26T11:15:19.660Z,46.60
2023-10-26T11:17:49.020Z,45.97
2023-10-26T11:20:38.625Z,32.03
2023-10-26T11:23:06.981Z,34.95
2023-10-26T11:25:35.080Z,38.25
2023-10-26T11:28:05.164Z,43.50
2023-10-26T11:30:48.694Z,40.88
2023-10-26T11:33:33.702Z,45.78
2023-10-26T11:36:02.318Z,39.33
2023-10-26T11:38:32.317Z,40.50
2023-10-26T11:41:00.469Z,32.13
2023-10-26T11:43:38.605Z,36.55
2023-10-26T11:46:07.262Z,42.97
2023-10-26T11:48:35.577Z,35.58
2023-10-26T11:51:07.838Z,42.17
2023-10-26T11:53:36.895Z,41.00
2023-10-26T11:56:08.393Z,40.50
2023-10-26T11:58:37.825Z,38.40
2023-10-26T12:01:07.222Z,34.13
2023-10-26T12:03:36.924Z,36.10
2023-10-26T12:06:05.116Z,40.72
2023-10-26T12:08:33.423Z,37.05
2023-10-26T12:11:01.538Z,48.30
2023-10-26T12:13:29.509Z,32.05
2023-10-26T12:15:59.007Z,29.90
2023-10-26T12:18:28.176Z,35.70
2023-10-26T12:20:56.388Z,33.40
2023-10-26T12:23:25.044Z,39.28
2023-10-26T12:25:53.567Z,36.65
2023-10-26T12:28:25.916Z,29.48
2023-10-26T12:30:55.968Z,36.35
2023-10-26T12:33:25.563Z,28.48
2023-10-26T12:35:53.547Z,29.23
2023-10-26T12:38:23.342Z,46.30
2023-10-26T12:40:51.481Z,38.15
2023-10-26T12:43:19.592Z,33.55
2023-10-26T12:45:47.688Z,29.02
2023-10-26T12:48:15.884Z,24.08
2023-10-26T12:50:45.307Z,37.35
2023-10-26T12:53:13.830Z,31.60
2023-10-26T12:55:42.049Z,39.35
2023-10-26T12:58:10.111Z,31.20
2023-10-26T13:00:38.269Z,37.75
2023-10-26T13:03:06.825Z,33.05
2023-10-26T13:05:34.824Z,37.90
2023-10-26T13:08:04.254Z,37.25
2023-10-26T13:10:32.607Z,36.25
2023-10-26T13:13:00.615Z,33.33
2023-10-26T13:15:28.784Z,40.55
2023-10-26T13:17:56.962Z,35.85
2023-10-26T13:20:27.166Z,27.98
2023-10-26T13:22:55.256Z,32.28
2023-10-26T13:25:27.125Z,32.90
2023-10-26T13:27:55.471Z,29.48
2023-10-26T13:30:23.632Z,26.90
2023-10-26T13:32:51.674Z,28.50
2023-10-26T13:35:19.701Z,41.03
2023-10-26T13:37:47.820Z,31.75
2023-10-26T13:40:15.814Z,27.80
2023-10-26T13:42:45.426Z,30.10
2023-10-26T13:45:16.221Z,34.72
2023-10-26T13:47:44.594Z,36.45
2023-10-26T13:50:12.683Z,36.83
2023-10-26T13:52:40.696Z,33.65
2023-10-26T13:55:09.282Z,32.55
2023-10-26T13:57:37.292Z,27.60
2023-10-26T14:00:10.019Z,30.17
2023-10-26T14:02:38.239Z,27.55
2023-10-26T14:05:14.853Z,29.98
2023-10-26T14:07:56.719Z,36.78
2023-10-26T14:10:25.518Z,29.38
2023-10-26T14:12:53.649Z,29.35
2023-10-26T14:15:23.261Z,28.40
2023-10-26T14:17:51.278Z,49.05
2023-10-26T14:20:19.444Z,38.60
2023-10-26T14:22:48.556Z,33.58
2023-10-26T14:25:16.598Z,32.38
2023-10-26T14:27:45.243Z,30.20
2023-10-26T14:30:14.203Z,39.25
2023-10-26T14:32:43.631Z,32.05
2023-10-26T14:35:11.627Z,40.72
2023-10-26T14:37:39.636Z,39.53
2023-10-26T14:40:09.509Z,39.85
2023-10-26T14:42:37.666Z,38.40
2023-10-26T14:45:06.607Z,41.13
2023-10-26T14:47:34.726Z,42.58
2023-10-26T14:50:04.381Z,39.08
2023-10-26T14:52:32.421Z,31.88
2023-10-26T14:55:02.595Z,43.80
2023-10-26T14:57:30.792Z,48.83
2023-10-26T14:59:58.854Z,41.33
2023-10-26T15:02:26.844Z,47.75
2023-10-26T15:04:54.902Z,38.47
2023-10-26T15:07:24.790Z,40.65
2023-10-26T15:10:23.266Z,31.13
2023-10-26T15:12:40.741Z,37.25
2023-10-26T15:15:09.398Z,34.67
2023-10-26T15:17:37.644Z,34.92
2023-10-26T15:20:07.009Z,39.90
2023-10-26T15:22:36.345Z,34.60
2023-10-26T15:25:04.751Z,37.00
2023-10-26T15:27:33.040Z,36.60
2023-10-26T15:30:01.187Z,32.63
2023-10-26T15:32:30.889Z,35.08
2023-10-26T15:34:59.215Z,36.42
2023-10-26T15:37:27.724Z,40.13
2023-10-26T15:39:57.587Z,39.00
2023-10-26T15:42:25.905Z,46.05
2023-10-26T15:44:54.058Z,42.25
2023-10-26T15:47:22.748Z,85.13
2023-10-26T15:50:10.371Z,62.92
2023-10-26T15:52:38.471Z,37.78
2023-10-26T15:55:08.497Z,52.60
2023-10-26T15:57:38.022Z,52.10
2023-10-26T16:00:10.811Z,51.25
2023-10-26T16:02:38.894Z,81.40
2023-10-26T16:05:07.542Z,115.90
2023-10-26T16:07:35.559Z,101.05
2023-10-26T16:10:03.550Z,55.28
2023-10-26T16:12:32.954Z,49.90
2023-10-26T16:15:01.100Z,55.40
2023-10-26T16:17:29.276Z,39.92
2023-10-26T16:19:59.155Z,44.60
2023-10-26T16:22:27.154Z,45.63
2023-10-26T16:24:55.123Z,49.10
2023-10-26T16:27:23.492Z,53.72
2023-10-26T16:29:53.061Z,43.92
2023-10-26T16:32:25.824Z,67.03
2023-10-26T16:34:53.821Z,44.55
2023-10-26T16:37:21.989Z,40.42
2023-10-26T16:39:50.205Z,45.90
2023-10-26T16:42:18.330Z,44.70
2023-10-26T16:44:46.445Z,46.65
2023-10-26T16:47:15.837Z,40.10
2023-10-26T16:49:43.967Z,75.22
2023-10-26T16:52:12.221Z,41.97
2023-10-26T16:54:40.289Z,45.53
2023-10-26T16:57:11.287Z,51.17
2023-10-26T16:59:39.572Z,47.60
2023-10-26T17:02:07.625Z,41.47
2023-10-26T17:04:37.085Z,27.55
2023-10-26T17:07:05.591Z,53.47
2023-10-26T17:09:33.644Z,38.72
2023-10-26T17:12:01.714Z,33.38
2023-10-26T17:14:29.724Z,37.65
2023-10-26T17:16:58.071Z,28.48
2023-10-26T17:19:26.317Z,42.80
2023-10-26T17:21:56.332Z,43.90
2023-10-26T17:24:25.002Z,38.08
2023-10-26T17:26:53.118Z,33.22
2023-10-26T17:29:21.693Z,39.60
2023-10-26T17:31:49.809Z,36.42
2023-10-26T17:34:17.860Z,28.65
2023-10-26T17:36:46.242Z,38.67
2023-10-26T17:39:15.717Z,41.63
2023-10-26T17:41:43.767Z,38.08
2023-10-26T17:44:11.776Z,52.33
2023-10-26T17:46:39.964Z,66.03
2023-10-26T17:49:08.264Z,55.55
2023-10-26T17:51:36.378Z,61.08
2023-10-26T17:54:05.306Z,54.03
2023-10-26T17:56:34.838Z,55.55
2023-10-26T17:59:02.998Z,45.28
2023-10-26T18:01:31.087Z,56.38
2023-10-26T18:03:59.144Z,48.50
2023-10-26T18:06:28.115Z,44.67
2023-10-26T18:08:56.602Z,56.10
2023-10-26T18:11:25.385Z,46.92
2023-10-26T18:13:54.730Z,56.08
2023-10-26T18:16:22.939Z,37.78
2023-10-26T18:18:51.046Z,38.83
2023-10-26T18:21:19.482Z,46.05
2023-10-26T18:23:47.473Z,54.45
2023-10-26T18:26:15.732Z,58.63
2023-10-26T18:28:45.105Z,53.15
2023-10-26T18:31:17.362Z,63.72
2023-10-26T18:33:47.299Z,56.22
2023-10-26T18:36:16.862Z,52.00
2023-10-26T18:38:45.135Z,62.70
2023-10-26T18:41:19.902Z,62.95
2023-10-26T18:43:49.375Z,62.25
2023-10-26T18:46:19.845Z,72.90
2023-10-26T18:48:48.302Z,55.95
2023-10-26T18:51:18.862Z,57.38
2023-10-26T18:53:47.251Z,61.38
2023-10-26T18:56:16.268Z,52.15
2023-10-26T18:58:44.847Z,56.75
2023-10-26T19:01:13.346Z,48.55
2023-10-26T19:03:57.440Z,45.58
2023-10-26T19:06:29.491Z,48.58
2023-10-26T19:08:57.642Z,48.40
2023-10-26T19:11:25.755Z,48.50
2023-10-26T19:13:54.273Z,54.95
2023-10-26T19:16:22.732Z,55.60
2023-10-26T19:18:52.239Z,62.38
2023-10-26T19:21:20.699Z,58.97
2023-10-26T19:23:48.651Z,59.38
2023-10-26T19:26:16.672Z,45.45
2023-10-26T19:28:44.764Z,52.63
2023-10-26T19:31:13.373Z,55.08
2023-10-26T19:33:43.535Z,47.10
2023-10-26T19:36:13.342Z,55.80
2023-10-26T19:38:41.633Z,44.03
2023-10-26T19:41:10.053Z,56.67
2023-10-26T19:43:38.014Z,43.03
2023-10-26T19:46:06.259Z,40.33
2023-10-26T19:48:34.317Z,49.63
2023-10-26T19:51:04.441Z,36.55
2023-10-26T19:53:36.814Z,23.95
2023-10-26T19:56:05.588Z,37.17
2023-10-26T19:58:33.596Z,43.05
2023-10-26T20:01:01.749Z,42.35
2023-10-26T20:03:29.866Z,41.38
2023-10-26T20:05:57.869Z,39.25
2023-10-26T20:08:25.936Z,53.88
2023-10-26T20:10:55.359Z,45.65
2023-10-26T20:13:23.376Z,44.15
2023-10-26T20:15:53.543Z,57.70
2023-10-26T20:18:21.705Z,46.33
2023-10-26T20:20:49.715Z,28.02
2023-10-26T20:23:18.114Z,29.00
2023-10-26T20:25:46.108Z,38.50
2023-10-26T20:28:17.139Z,28.55
2023-10-26T20:30:45.284Z,46.95
2023-10-26T20:33:13.358Z,32.85
2023-10-26T20:35:42.273Z,35.40
2023-10-26T20:38:11.021Z,31.50
2023-10-26T20:40:41.942Z,39.05
2023-10-26T20:43:09.950Z,42.90
2023-10-26T20:45:39.470Z,42.53
2023-10-26T20:48:07.577Z,46.63
2023-10-26T20:50:35.589Z,40.70
2023-10-26T20:53:04.520Z,31.58
2023-10-26T20:55:32.673Z,33.80
2023-10-26T20:58:01.089Z,36.88
2023-10-26T21:00:29.638Z,42.15
2023-10-26T21:02:59.104Z,32.35
2023-10-26T21:05:27.735Z,21.98
2023-10-26T21:07:56.225Z,17.27
2023-10-26T21:10:24.389Z,18.45
2023-10-26T21:12:52.652Z,19.60
2023-10-26T21:15:21.727Z,17.40
2023-10-26T21:17:49.773Z,18.75
2023-10-26T21:20:19.785Z,13.88
2023-10-26T21:22:48.677Z,13.82
2023-10-26T21:25:17.106Z,17.08
2023-10-26T21:27:45.155Z,21.13
2023-10-26T21:30:14.201Z,19.17
2023-10-26T21:32:42.307Z,18.77
2023-10-26T21:35:11.393Z,16.45
2023-10-26T21:37:40.779Z,21.08
2023-10-26T21:40:10.541Z,16.33
2023-10-26T21:42:38.815Z,17.55
2023-10-26T21:45:07.741Z,18.65
2023-10-26T21:47:35.795Z,13.95
2023-10-26T21:50:04.040Z,15.48
2023-10-26T21:52:32.116Z,20.25
2023-10-26T21:55:01.569Z,21.65
2023-10-26T21:57:29.533Z,24.20
2023-10-26T21:59:57.619Z,27.77
2023-10-26T22:02:26.102Z,21.58
2023-10-26T22:04:54.228Z,27.92
2023-10-26T22:07:22.701Z,26.42
2023-10-26T22:09:55.561Z,22.63
2023-10-26T22:12:25.485Z,23.48
2023-10-26T22:14:53.535Z,24.70
2023-10-26T22:17:21.662Z,34.80
2023-10-26T22:19:51.711Z,31.08
2023-10-26T22:22:20.025Z,27.13
2023-10-26T22:24:48.224Z,29.67
2023-10-26T22:27:16.323Z,25.02
2023-10-26T22:29:45.924Z,22.07
2023-10-26T22:32:14.112Z,25.30
2023-10-26T22:34:42.227Z,21.55
2023-10-26T22:37:10.242Z,23.60
2023-10-26T22:39:38.315Z,25.50
2023-10-26T22:42:05.722Z,25.20
2023-10-26T22:44:33.719Z,23.33
2023-10-26T22:47:03.132Z,27.85
2023-10-26T22:49:31.290Z,20.75
2023-10-26T22:51:59.441Z,28.13
2023-10-26T22:54:27.629Z,25.03
2023-10-26T22:56:55.568Z,25.67
2023-10-26T22:59:23.706Z,29.47
2023-10-26T23:01:52.616Z,24.95
2023-10-26T23:04:22.491Z,21.43
2023-10-26T23:06:50.695Z,24.50
2023-10-26T23:09:19.878Z,27.67
2023-10-26T23:11:47.841Z,25.93
2023-10-26T23:14:15.888Z,27.27
2023-10-26T23:16:49.291Z,20.30
2023-10-26T23:19:18.322Z,19.93
2023-10-26T23:21:48.817Z,21.90
2023-10-26T23:24:16.962Z,24.93
2023-10-26T23:26:45.068Z,27.73
2023-10-26T23:29:12.979Z,22.87
2023-10-26T23:31:40.985Z,14.80
2023-10-26T23:34:09.020Z,21.60
2023-10-26T23:36:37.108Z,18.07
2023-10-26T23:39:06.640Z,21.23
2023-10-26T23:41:34.709Z,20.90
2023-10-26T23:44:02.710Z,14.73
2023-10-26T23:46:30.739Z,23.63
2023-10-26T23:48:58.889Z,27.33
2023-10-26T23:51:26.953Z,17.47
2023-10-26T23:53:55.233Z,30.50
2023-10-26T23:56:24.621Z,17.63
2023-10-26T23:58:52.623Z,24.90
